createdAt,value
2023-03-03T00:01:11.932Z,77.77
2023-03-03T00:03:40.381Z,83.40
2023-03-03T00:06:11.893Z,86.07
2023-03-03T00:08:40.126Z,75.37
2023-03-03T00:11:08.110Z,77.00
2023-03-03T00:13:46.193Z,81.87
2023-03-03T00:16:23.371Z,82.00
2023-03-03T00:18:51.311Z,71.47
2023-03-03T00:21:29.458Z,77.33
2023-03-03T00:24:25.937Z,76.93
2023-03-03T00:27:01.458Z,80.57
2023-03-03T00:29:29.370Z,72.07
2023-03-03T00:32:55.948Z,77.90
2023-03-03T00:35:36.118Z,67.20
2023-03-03T00:38:16.123Z,63.33
2023-03-03T00:40:43.753Z,75.63
2023-03-03T00:43:19.065Z,67.77
2023-03-03T00:45:48.739Z,72.87
2023-03-03T00:48:25.039Z,86.70
2023-03-03T00:50:58.098Z,89.37
2023-03-03T00:53:30.870Z,80.20
2023-03-03T00:55:59.087Z,71.97
2023-03-03T00:58:27.692Z,71.33
2023-03-03T01:00:56.860Z,63.80
2023-03-03T01:03:31.285Z,66.20
2023-03-03T01:05:59.042Z,67.63
2023-03-03T01:08:27.083Z,67.93
2023-03-03T01:11:00.099Z,63.30
2023-03-03T01:13:32.972Z,66.20
2023-03-03T01:16:02.525Z,68.63
2023-03-03T01:18:31.102Z,69.13
2023-03-03T01:20:58.964Z,66.03
2023-03-03T01:23:26.941Z,68.50
2023-03-03T01:25:54.656Z,60.73
2023-03-03T01:28:22.676Z,65.27
2023-03-03T01:30:51.047Z,60.17
2023-03-03T01:33:19.160Z,65.40
2023-03-03T01:35:48.213Z,61.83
2023-03-03T01:38:16.406Z,61.20
2023-03-03T01:40:44.110Z,64.53
2023-03-03T01:43:15.612Z,62.90
2023-03-03T01:46:03.202Z,67.70
2023-03-03T01:48:37.071Z,56.67
2023-03-03T01:51:09.885Z,62.23
2023-03-03T01:53:56.643Z,68.53
2023-03-03T01:56:24.309Z,68.80
2023-03-03T01:58:56.941Z,63.10
2023-03-03T02:01:27.990Z,65.60
2023-03-03T02:03:56.290Z,60.97
2023-03-03T02:06:27.760Z,60.40
2023-03-03T02:09:05.443Z,60.93
2023-03-03T02:11:36.496Z,59.57
2023-03-03T02:14:04.862Z,59.33
2023-03-03T02:16:32.783Z,56.83
2023-03-03T02:19:01.211Z,59.57
2023-03-03T02:21:30.021Z,55.17
2023-03-03T02:24:35.572Z,50.93
2023-03-03T02:27:03.257Z,60.27
2023-03-03T02:29:32.019Z,49.43
2023-03-03T02:32:00.335Z,57.90
2023-03-03T02:34:28.381Z,55.80
2023-03-03T02:36:56.208Z,51.93
2023-03-03T02:39:26.793Z,51.33
2023-03-03T02:42:17.292Z,53.53
2023-03-03T02:44:50.734Z,50.70
2023-03-03T02:47:19.142Z,54.10
2023-03-03T02:49:47.112Z,54.47
2023-03-03T02:52:15.071Z,51.57
2023-03-03T02:54:46.564Z,51.77
2023-03-03T02:57:14.320Z,53.83
2023-03-03T02:59:42.202Z,47.80
2023-03-03T03:02:13.542Z,52.03
2023-03-03T03:04:42.580Z,48.00
2023-03-03T03:07:12.307Z,50.57
2023-03-03T03:09:40.843Z,50.40
2023-03-03T03:12:08.730Z,44.87
2023-03-03T03:14:37.283Z,50.90
2023-03-03T03:17:06.821Z,52.03
2023-03-03T03:19:35.084Z,46.40
2023-03-03T03:22:03.832Z,51.30
2023-03-03T03:24:34.623Z,45.13
2023-03-03T03:27:06.132Z,50.03
2023-03-03T03:29:34.043Z,49.13
2023-03-03T03:32:02.059Z,48.23
2023-03-03T03:34:30.360Z,50.97
2023-03-03T03:36:58.659Z,50.70
2023-03-03T03:39:28.778Z,49.77
2023-03-03T03:41:57.510Z,48.17
2023-03-03T03:44:25.692Z,50.60
2023-03-03T03:46:54.850Z,49.60
2023-03-03T03:49:22.990Z,50.90
2023-03-03T03:51:53.469Z,49.93
2023-03-03T03:54:25.290Z,47.50
2023-03-03T03:56:54.758Z,49.67
2023-03-03T03:59:23.978Z,46.83
2023-03-03T04:01:52.139Z,45.80
2023-03-03T04:04:22.214Z,46.53
2023-03-03T04:06:50.263Z,48.17
2023-03-03T04:09:18.209Z,48.33
2023-03-03T04:11:46.551Z,43.60
2023-03-03T04:14:15.933Z,46.87
2023-03-03T04:16:44.022Z,47.60
2023-03-03T04:19:12.032Z,53.23
2023-03-03T04:21:42.487Z,62.93
2023-03-03T04:24:10.622Z,53.87
2023-03-03T04:26:39.469Z,48.27
2023-03-03T04:29:07.896Z,39.03
2023-03-03T04:31:35.779Z,44.47
2023-03-03T04:34:05.269Z,55.27
2023-03-03T04:36:33.307Z,42.93
2023-03-03T04:39:01.245Z,44.30
2023-03-03T04:41:29.343Z,58.27
2023-03-03T04:43:57.794Z,52.47
2023-03-03T04:46:25.477Z,43.20
2023-03-03T04:48:53.685Z,46.63
2023-03-03T04:51:21.375Z,82.43
2023-03-03T04:53:49.555Z,55.63
2023-03-03T04:56:17.508Z,45.67
2023-03-03T04:58:46.312Z,51.77
2023-03-03T05:01:17.031Z,70.73
2023-03-03T05:03:45.970Z,72.97
2023-03-03T05:06:13.712Z,57.10
2023-03-03T05:08:43.300Z,43.00
2023-03-03T05:11:11.072Z,53.30
2023-03-03T05:13:39.022Z,74.07
2023-03-03T05:16:07.069Z,74.97
2023-03-03T05:18:35.001Z,100.63
2023-03-03T05:21:02.646Z,88.13
2023-03-03T05:23:31.408Z,64.33
2023-03-03T05:25:59.009Z,58.57
2023-03-03T05:28:26.991Z,52.13
2023-03-03T05:30:54.548Z,47.97
2023-03-03T05:33:22.480Z,105.97
2023-03-03T05:35:54.945Z,58.43
2023-03-03T05:38:23.462Z,63.83
2023-03-03T05:40:51.355Z,55.03
2023-03-03T05:43:19.993Z,55.63
2023-03-03T05:45:47.829Z,51.17
2023-03-03T05:48:16.064Z,63.40
2023-03-03T05:50:43.838Z,49.57
2023-03-03T05:53:11.750Z,65.77
2023-03-03T05:55:39.436Z,62.67
2023-03-03T05:58:07.522Z,50.37
2023-03-03T06:00:35.220Z,67.53
2023-03-03T06:03:03.302Z,64.17
2023-03-03T06:05:31.264Z,56.37
2023-03-03T06:08:00.101Z,73.20
2023-03-03T06:10:28.208Z,63.27
2023-03-03T06:12:59.341Z,57.50
2023-03-03T06:15:27.227Z,58.17
2023-03-03T06:17:55.397Z,72.90
2023-03-03T06:20:23.060Z,63.73
2023-03-03T06:22:50.625Z,63.83
2023-03-03T06:25:18.627Z,53.73
2023-03-03T06:27:46.816Z,58.00
2023-03-03T06:30:14.691Z,61.87
2023-03-03T06:32:42.421Z,61.67
2023-03-03T06:35:10.138Z,57.37
2023-03-03T06:37:38.311Z,67.13
2023-03-03T06:40:06.961Z,63.40
2023-03-03T06:42:34.834Z,69.60
2023-03-03T06:45:02.496Z,59.00
2023-03-03T06:47:30.626Z,64.97
2023-03-03T06:49:58.192Z,61.07
2023-03-03T06:52:27.434Z,72.37
2023-03-03T06:54:58.309Z,87.43
2023-03-03T06:57:33.753Z,104.20
2023-03-03T07:00:13.450Z,86.97
2023-03-03T07:02:41.360Z,79.97
2023-03-03T07:05:16.882Z,70.90
2023-03-03T07:07:44.982Z,80.63
2023-03-03T07:10:30.809Z,83.97
2023-03-03T07:13:16.344Z,72.07
2023-03-03T07:15:44.644Z,81.60
2023-03-03T07:18:39.630Z,71.77
2023-03-03T07:21:20.677Z,86.67
2023-03-03T07:23:53.344Z,83.73
2023-03-03T07:26:30.878Z,73.57
2023-03-03T07:28:58.771Z,66.83
2023-03-03T07:31:29.634Z,69.00
2023-03-03T07:33:59.581Z,77.20
2023-03-03T07:36:28.299Z,76.27
2023-03-03T07:38:59.242Z,77.57
2023-03-03T07:41:27.673Z,87.27
2023-03-03T07:44:07.562Z,91.33
2023-03-03T07:46:51.827Z,84.47
2023-03-03T07:49:36.355Z,71.57
2023-03-03T07:52:29.860Z,82.73
2023-03-03T07:55:01.172Z,80.10
2023-03-03T07:57:40.039Z,74.70
2023-03-03T08:00:17.150Z,82.70
2023-03-03T08:02:52.440Z,78.70
2023-03-03T08:05:28.374Z,88.07
2023-03-03T08:08:31.865Z,79.83
2023-03-03T08:11:01.801Z,73.40
2023-03-03T08:13:33.472Z,65.63
2023-03-03T08:16:30.683Z,75.47
2023-03-03T08:19:02.391Z,81.67
2023-03-03T08:21:31.988Z,90.80
2023-03-03T08:23:59.647Z,66.87
2023-03-03T08:26:28.068Z,76.17
2023-03-03T08:28:56.116Z,75.13
2023-03-03T08:31:39.692Z,107.17
2023-03-03T08:34:08.302Z,49.80
2023-03-03T08:36:36.169Z,41.90
2023-03-03T08:39:05.004Z,35.07
2023-03-03T08:41:32.947Z,33.77
2023-03-03T08:44:00.540Z,40.00
2023-03-03T08:46:28.741Z,44.57
2023-03-03T08:48:56.382Z,54.47
2023-03-03T08:51:25.382Z,33.77
2023-03-03T08:53:53.097Z,42.97
2023-03-03T08:56:20.952Z,38.50
2023-03-03T08:59:03.842Z,46.23
2023-03-03T09:01:32.938Z,46.80
2023-03-03T09:04:00.676Z,34.13
2023-03-03T09:06:28.618Z,33.70
2023-03-03T09:08:56.381Z,31.83
2023-03-03T09:11:28.720Z,36.00
2023-03-03T09:14:10.452Z,33.07
2023-03-03T09:16:41.161Z,29.07
2023-03-03T09:19:32.662Z,29.50
2023-03-03T09:22:18.394Z,31.47
2023-03-03T09:24:47.710Z,29.27
2023-03-03T09:27:27.123Z,29.83
2023-03-03T09:29:54.711Z,37.27
2023-03-03T09:32:34.309Z,39.63
2023-03-03T09:35:35.056Z,43.43
2023-03-03T09:38:25.077Z,30.87
2023-03-03T09:40:53.668Z,27.30
2023-03-03T09:43:30.181Z,26.67
2023-03-03T09:46:21.833Z,27.77
2023-03-03T09:49:01.051Z,23.37
2023-03-03T09:52:00.036Z,23.83
2023-03-03T09:54:41.047Z,24.07
2023-03-03T09:58:01.208Z,23.07
2023-03-03T10:00:57.029Z,23.93
2023-03-03T10:03:46.777Z,20.00
2023-03-03T10:06:32.029Z,32.23
2023-03-03T10:09:23.493Z,45.07
2023-03-03T10:12:11.556Z,45.93
2023-03-03T10:14:56.190Z,45.57
2023-03-03T10:17:36.644Z,34.97
2023-03-03T10:20:04.359Z,42.47
2023-03-03T10:22:52.893Z,47.87
2023-03-03T10:25:39.356Z,34.03
2023-03-03T10:28:44.847Z,29.93
2023-03-03T10:31:17.241Z,19.90
2023-03-03T10:34:27.344Z,22.30
2023-03-03T10:36:55.170Z,45.03
2023-03-03T10:39:35.918Z,36.77
2023-03-03T10:42:22.505Z,25.10
2023-03-03T10:45:12.239Z,21.23
2023-03-03T10:48:24.070Z,34.50
2023-03-03T10:51:05.939Z,37.87
2023-03-03T10:53:52.574Z,40.13
2023-03-03T10:56:20.505Z,43.57
2023-03-03T10:59:18.762Z,27.27
2023-03-03T11:01:54.060Z,30.63
2023-03-03T11:04:33.202Z,33.23
2023-03-03T11:07:14.160Z,28.20
2023-03-03T11:10:25.614Z,26.77
2023-03-03T11:12:54.103Z,35.60
2023-03-03T11:15:44.767Z,36.10
2023-03-03T11:18:36.557Z,26.87
2023-03-03T11:21:15.843Z,38.33
2023-03-03T11:24:08.235Z,35.47
2023-03-03T11:26:53.862Z,46.27
2023-03-03T11:29:35.574Z,86.87
2023-03-03T11:32:14.904Z,34.77
2023-03-03T11:35:18.280Z,28.50
2023-03-03T11:37:57.180Z,33.00
2023-03-03T11:40:36.541Z,35.83
2023-03-03T11:43:35.402Z,32.60
2023-03-03T11:46:15.400Z,25.60
2023-03-03T11:49:03.203Z,27.87
2023-03-03T11:51:31.299Z,27.07
2023-03-03T11:54:05.873Z,29.10
2023-03-03T11:56:42.983Z,30.10
2023-03-03T11:59:20.045Z,25.53
2023-03-03T12:01:57.559Z,25.63
2023-03-03T12:04:59.870Z,24.47
2023-03-03T12:07:38.347Z,26.00
2023-03-03T12:10:22.091Z,27.47
2023-03-03T12:13:14.887Z,24.50
2023-03-03T12:16:08.357Z,29.10
2023-03-03T12:18:36.256Z,26.90
2023-03-03T12:21:40.420Z,25.80
2023-03-03T12:24:23.470Z,29.50
2023-03-03T12:26:51.085Z,28.83
2023-03-03T12:29:31.258Z,23.60
2023-03-03T12:32:21.659Z,24.40
2023-03-03T12:35:09.793Z,26.17
2023-03-03T12:38:03.500Z,28.20
2023-03-03T12:40:35.383Z,32.57
2023-03-03T12:43:35.828Z,22.70
2023-03-03T12:46:28.581Z,25.70
2023-03-03T12:48:57.060Z,25.03
2023-03-03T12:52:03.873Z,26.83
2023-03-03T12:54:43.201Z,24.43
2023-03-03T12:57:27.756Z,24.43
2023-03-03T13:00:08.697Z,20.87
2023-03-03T13:02:37.031Z,26.53
2023-03-03T13:05:19.231Z,25.30
2023-03-03T13:08:34.423Z,22.30
2023-03-03T13:11:36.074Z,32.97
2023-03-03T13:14:04.534Z,30.23
2023-03-03T13:16:41.861Z,27.20
2023-03-03T13:19:10.985Z,20.90
2023-03-03T13:21:38.654Z,19.60
2023-03-03T13:24:51.423Z,24.20
2023-03-03T13:27:23.322Z,23.23
2023-03-03T13:30:23.630Z,25.63
2023-03-03T13:33:10.878Z,33.20
2023-03-03T13:35:38.883Z,24.77
2023-03-03T13:38:09.889Z,28.27
2023-03-03T13:41:00.154Z,20.87
2023-03-03T13:43:50.076Z,27.70
2023-03-03T13:46:18.108Z,27.70
2023-03-03T13:48:56.485Z,37.10
2023-03-03T13:51:33.684Z,43.50
2023-03-03T13:54:15.849Z,41.17
2023-03-03T13:56:55.703Z,18.27
2023-03-03T13:59:35.033Z,18.13
2023-03-03T14:02:26.344Z,24.40
2023-03-03T14:05:19.107Z,18.60
2023-03-03T14:08:01.712Z,20.80
2023-03-03T14:10:35.970Z,20.87
2023-03-03T14:13:12.170Z,21.10
2023-03-03T14:16:09.713Z,21.43
2023-03-03T14:18:37.826Z,27.60
2023-03-03T14:21:25.075Z,27.60
2023-03-03T14:23:57.428Z,16.67
2023-03-03T14:26:25.287Z,17.33
2023-03-03T14:29:15.586Z,17.33
2023-03-03T14:31:43.752Z,17.93
2023-03-03T14:34:23.850Z,17.00
2023-03-03T14:36:54.102Z,22.77
2023-03-03T14:39:40.199Z,19.80
2023-03-03T14:42:30.443Z,18.33
2023-03-03T14:45:01.192Z,24.20
2023-03-03T14:47:29.890Z,19.03
2023-03-03T14:50:00.494Z,40.20
2023-03-03T14:52:31.322Z,33.47
2023-03-03T14:55:01.680Z,17.97
2023-03-03T14:57:48.857Z,23.17
2023-03-03T15:00:19.549Z,24.07
2023-03-03T15:02:52.928Z,32.13
2023-03-03T15:05:24.874Z,29.20
2023-03-03T15:08:05.590Z,23.77
2023-03-03T15:10:39.912Z,34.40
2023-03-03T15:13:32.093Z,22.77
2023-03-03T15:16:00.102Z,23.23
2023-03-03T15:18:30.271Z,23.20
2023-03-03T15:21:18.982Z,23.37
2023-03-03T15:23:55.565Z,24.63
2023-03-03T15:26:46.172Z,26.03
2023-03-03T15:29:35.109Z,21.07
2023-03-03T15:32:14.604Z,25.73
2023-03-03T15:34:59.920Z,21.23
2023-03-03T15:37:39.441Z,19.30
2023-03-03T15:40:08.428Z,20.90
2023-03-03T15:43:00.817Z,22.07
2023-03-03T15:45:37.995Z,19.53
2023-03-03T15:48:27.309Z,20.27
2023-03-03T15:51:15.850Z,25.63
2023-03-03T15:54:07.394Z,21.77
2023-03-03T15:56:48.812Z,24.60
2023-03-03T15:59:26.404Z,27.00
2023-03-03T16:02:24.230Z,24.03
2023-03-03T16:05:03.803Z,25.17
2023-03-03T16:07:46.782Z,26.67
2023-03-03T16:10:44.079Z,29.00
2023-03-03T16:13:41.317Z,28.80
2023-03-03T16:16:31.130Z,34.13
2023-03-03T16:18:59.021Z,30.00
2023-03-03T16:22:11.833Z,29.63
2023-03-03T16:24:54.341Z,26.87
2023-03-03T16:27:43.068Z,35.40
2023-03-03T16:30:22.550Z,26.27
2023-03-03T16:33:10.445Z,29.83
2023-03-03T16:36:06.180Z,28.43
2023-03-03T16:38:43.775Z,31.13
2023-03-03T16:41:22.212Z,31.07
2023-03-03T16:44:14.867Z,26.97
2023-03-03T16:46:49.522Z,33.70
2023-03-03T16:49:17.830Z,29.93
2023-03-03T16:51:59.220Z,31.03
2023-03-03T16:54:42.742Z,33.20
2023-03-03T16:57:37.730Z,33.03
2023-03-03T17:00:30.240Z,38.20
2023-03-03T17:03:34.971Z,44.70
2023-03-03T17:06:25.749Z,34.87
2023-03-03T17:09:23.353Z,39.27
2023-03-03T17:12:00.713Z,39.70
2023-03-03T17:14:46.159Z,40.73
2023-03-03T17:17:32.741Z,42.67
2023-03-03T17:20:00.846Z,42.37
2023-03-03T17:22:31.534Z,47.40
2023-03-03T17:25:01.537Z,52.73
2023-03-03T17:28:12.811Z,99.70
2023-03-03T17:31:13.121Z,56.10
2023-03-03T17:33:52.706Z,53.63
2023-03-03T17:36:37.856Z,43.93
2023-03-03T17:39:26.998Z,42.30
2023-03-03T17:41:54.576Z,41.23
2023-03-03T17:44:58.587Z,42.60
2023-03-03T17:47:56.172Z,44.23
2023-03-03T17:50:38.502Z,43.10
2023-03-03T17:53:11.374Z,45.43
2023-03-03T17:55:39.709Z,43.30
2023-03-03T17:58:33.604Z,41.63
2023-03-03T18:01:02.040Z,41.60
2023-03-03T18:04:01.583Z,45.17
2023-03-03T18:07:08.265Z,48.00
2023-03-03T18:09:36.060Z,39.97
2023-03-03T18:12:09.345Z,39.17
2023-03-03T18:15:00.019Z,45.87
2023-03-03T18:17:28.004Z,47.40
2023-03-03T18:20:25.301Z,45.73
2023-03-03T18:22:53.915Z,48.13
2023-03-03T18:25:46.757Z,49.90
2023-03-03T18:28:21.830Z,40.17
2023-03-03T18:31:01.108Z,42.17
2023-03-03T18:34:06.547Z,42.63
2023-03-03T18:36:35.498Z,42.30
2023-03-03T18:39:05.753Z,40.17
2023-03-03T18:41:54.183Z,45.53
2023-03-03T18:44:29.793Z,43.30
2023-03-03T18:46:59.100Z,44.57
2023-03-03T18:50:08.933Z,42.50
2023-03-03T18:52:37.885Z,45.97
2023-03-03T18:55:09.497Z,50.50
2023-03-03T18:57:38.445Z,44.67
2023-03-03T19:00:29.619Z,43.27
2023-03-03T19:02:59.810Z,43.80
2023-03-03T19:05:37.454Z,48.53
2023-03-03T19:08:24.802Z,47.23
2023-03-03T19:10:59.107Z,42.97
2023-03-03T19:13:32.565Z,50.50
2023-03-03T19:16:06.578Z,45.07
2023-03-03T19:19:01.510Z,58.30
2023-03-03T19:21:37.144Z,45.77
2023-03-03T19:24:23.583Z,45.17
2023-03-03T19:26:58.021Z,45.70
2023-03-03T19:30:00.533Z,44.30
2023-03-03T19:32:55.643Z,43.63
2023-03-03T19:35:26.238Z,43.50
2023-03-03T19:37:55.467Z,49.43
2023-03-03T19:40:32.126Z,44.77
2023-03-03T19:43:19.867Z,47.90
2023-03-03T19:46:19.226Z,41.93
2023-03-03T19:48:55.247Z,41.27
2023-03-03T19:51:46.768Z,40.23
2023-03-03T19:54:56.158Z,49.57
2023-03-03T19:57:43.838Z,49.00
2023-03-03T20:00:24.878Z,49.03
2023-03-03T20:03:14.454Z,50.13
2023-03-03T20:06:20.161Z,51.30
2023-03-03T20:09:18.700Z,49.17
2023-03-03T20:12:13.704Z,52.73
2023-03-03T20:14:50.596Z,57.10
2023-03-03T20:17:29.356Z,62.00
2023-03-03T20:20:22.387Z,52.93
2023-03-03T20:23:22.076Z,56.00
2023-03-03T20:25:58.650Z,56.07
2023-03-03T20:29:04.363Z,53.50
2023-03-03T20:31:40.631Z,50.37
2023-03-03T20:34:16.439Z,59.87
2023-03-03T20:36:56.218Z,55.17
2023-03-03T20:39:57.859Z,52.60
2023-03-03T20:42:33.967Z,53.43
2023-03-03T20:45:16.200Z,53.20
2023-03-03T20:48:07.028Z,59.50
2023-03-03T20:50:47.241Z,48.10
2023-03-03T20:53:35.729Z,44.70
2023-03-03T20:56:12.612Z,46.73
2023-03-03T20:58:44.092Z,43.40
2023-03-03T21:01:26.845Z,37.33
2023-03-03T21:03:56.750Z,41.60
2023-03-03T21:06:39.351Z,39.23
2023-03-03T21:09:08.346Z,38.50
2023-03-03T21:11:36.302Z,39.50
2023-03-03T21:14:25.018Z,40.20
2023-03-03T21:16:56.464Z,36.93
2023-03-03T21:19:35.390Z,38.07
2023-03-03T21:22:04.483Z,36.90
2023-03-03T21:24:56.146Z,35.97
2023-03-03T21:27:33.072Z,36.77
2023-03-03T21:30:03.534Z,36.80
2023-03-03T21:32:40.127Z,39.43
2023-03-03T21:35:11.159Z,39.90
2023-03-03T21:37:43.592Z,38.73
2023-03-03T21:40:25.998Z,37.90
2023-03-03T21:42:56.270Z,38.17
2023-03-03T21:45:24.535Z,39.17
2023-03-03T21:47:54.265Z,40.93
2023-03-03T21:50:22.853Z,39.93
2023-03-03T21:52:50.710Z,38.17
2023-03-03T21:55:18.781Z,41.37
2023-03-03T21:57:46.612Z,41.77
2023-03-03T22:00:14.918Z,44.50
2023-03-03T22:02:42.580Z,46.67
2023-03-03T22:05:11.324Z,39.17
2023-03-03T22:07:39.181Z,43.70
2023-03-03T22:10:10.066Z,43.80
2023-03-03T22:12:37.918Z,45.57
2023-03-03T22:15:06.231Z,42.90
2023-03-03T22:17:35.862Z,41.87
2023-03-03T22:20:04.328Z,43.43
2023-03-03T22:22:32.097Z,43.57
2023-03-03T22:25:00.155Z,38.87
2023-03-03T22:27:28.037Z,43.60
2023-03-03T22:29:56.121Z,44.40
2023-03-03T22:32:23.851Z,42.13
2023-03-03T22:34:52.017Z,43.50
2023-03-03T22:37:19.980Z,46.57
2023-03-03T22:39:48.014Z,41.77
2023-03-03T22:42:16.099Z,39.77
2023-03-03T22:44:45.970Z,35.90
2023-03-03T22:47:14.170Z,40.07
2023-03-03T22:49:42.392Z,34.53
2023-03-03T22:52:10.303Z,40.47
2023-03-03T22:54:38.295Z,37.27
2023-03-03T22:57:06.063Z,39.63
2023-03-03T22:59:34.710Z,40.60
2023-03-03T23:02:02.421Z,39.97
2023-03-03T23:04:33.140Z,37.93
2023-03-03T23:07:01.420Z,37.13
2023-03-03T23:09:29.454Z,42.90
2023-03-03T23:11:57.262Z,37.50
2023-03-03T23:14:25.254Z,37.43
2023-03-03T23:16:53.081Z,39.70
2023-03-03T23:19:21.308Z,43.73
2023-03-03T23:21:48.979Z,38.13
2023-03-03T23:24:17.038Z,35.37
2023-03-03T23:26:44.745Z,37.70
2023-03-03T23:29:12.692Z,36.83
2023-03-03T23:31:40.436Z,38.60
2023-03-03T23:34:08.522Z,36.53
2023-03-03T23:36:35.884Z,41.27
2023-03-03T23:39:03.984Z,37.27
2023-03-03T23:41:31.726Z,38.37
2023-03-03T23:43:59.837Z,40.20
2023-03-03T23:46:27.705Z,39.33
2023-03-03T23:48:55.664Z,36.30
2023-03-03T23:51:23.296Z,37.07
2023-03-03T23:53:51.245Z,38.77
2023-03-03T23:56:18.894Z,33.77
2023-03-03T23:58:46.759Z,37.63
